createdAt,value
2023-04-26T00:00:45.804Z,100606.66
2023-04-26T00:03:14.572Z,100604.13
2023-04-26T00:05:42.873Z,100601.63
2023-04-26T00:08:10.732Z,100604.31
2023-04-26T00:10:40.716Z,100602.66
2023-04-26T00:13:08.567Z,100604.53
2023-04-26T00:15:36.613Z,100601.16
2023-04-26T00:18:04.605Z,100605.66
2023-04-26T00:20:32.447Z,100611.16
2023-04-26T00:23:00.217Z,100616.53
2023-04-26T00:25:28.060Z,100606.97
2023-04-26T00:27:55.899Z,100602.75
2023-04-26T00:30:23.625Z,100603.81
2023-04-26T00:32:51.404Z,100602.06
2023-04-26T00:35:19.762Z,100608.34
2023-04-26T00:37:47.649Z,100587.31
2023-04-26T00:40:17.091Z,100591.66
2023-04-26T00:42:44.816Z,100591.78
2023-04-26T00:45:12.668Z,100595.34
2023-04-26T00:47:41.138Z,100595.50
2023-04-26T00:50:10.561Z,100600.69
2023-04-26T00:52:38.847Z,100597.22
2023-04-26T00:55:07.400Z,100601.69
2023-04-26T00:57:35.153Z,100600.84
2023-04-26T01:00:03.195Z,100599.94
2023-04-26T01:02:31.230Z,100599.97
2023-04-26T01:04:59.066Z,100597.44
2023-04-26T01:07:26.949Z,100600.09
2023-04-26T01:09:56.587Z,100595.97
2023-04-26T01:12:25.035Z,100600.50
2023-04-26T01:14:53.928Z,100598.91
2023-04-26T01:17:24.707Z,100600.88
2023-04-26T01:19:52.911Z,100600.22
2023-04-26T01:22:21.207Z,100592.44
2023-04-26T01:24:51.694Z,100589.72
2023-04-26T01:27:19.427Z,100586.44
2023-04-26T01:29:48.666Z,100576.88
2023-04-26T01:32:16.516Z,100583.13
2023-04-26T01:34:44.231Z,100588.53
2023-04-26T01:37:12.057Z,100582.47
2023-04-26T01:39:39.739Z,100590.56
2023-04-26T01:42:07.549Z,100576.53
2023-04-26T01:44:35.429Z,100586.47
2023-04-26T01:47:03.242Z,100584.00
2023-04-26T01:49:31.285Z,100592.88
2023-04-26T01:51:59.788Z,100594.84
2023-04-26T01:54:27.502Z,100583.53
2023-04-26T01:56:55.318Z,100596.00
2023-04-26T01:59:23.064Z,100587.41
2023-04-26T02:01:50.932Z,100598.03
2023-04-26T02:04:18.746Z,100595.53
2023-04-26T02:06:46.529Z,100586.00
2023-04-26T02:09:14.258Z,100593.00
2023-04-26T02:11:42.389Z,100597.53
2023-04-26T02:14:10.084Z,100592.34
2023-04-26T02:16:40.585Z,100595.00
2023-04-26T02:19:10.842Z,100604.75
2023-04-26T02:21:58.432Z,100601.13
2023-04-26T02:24:26.928Z,100594.13
2023-04-26T02:26:55.068Z,100597.72
2023-04-26T02:29:36.318Z,100591.53
2023-04-26T02:32:10.733Z,100589.91
2023-04-26T02:34:38.867Z,100602.31
2023-04-26T02:37:07.529Z,100606.81
2023-04-26T02:39:35.465Z,100589.31
2023-04-26T02:42:03.609Z,100592.88
2023-04-26T02:44:31.699Z,100599.00
2023-04-26T02:46:59.445Z,100597.47
2023-04-26T02:49:27.416Z,100595.75
2023-04-26T02:51:55.192Z,100596.78
2023-04-26T02:54:22.916Z,100607.53
2023-04-26T02:56:50.645Z,100596.25
2023-04-26T02:59:18.412Z,100602.56
2023-04-26T03:01:46.255Z,100607.09
2023-04-26T03:04:14.148Z,100611.59
2023-04-26T03:06:41.874Z,100599.34
2023-04-26T03:09:09.628Z,100608.16
2023-04-26T03:11:37.417Z,100606.41
2023-04-26T03:14:05.196Z,100600.31
2023-04-26T03:16:42.865Z,100613.38
2023-04-26T03:19:10.774Z,100606.34
2023-04-26T03:21:39.775Z,100603.66
2023-04-26T03:24:07.775Z,100598.47
2023-04-26T03:26:35.597Z,100597.53
2023-04-26T03:29:03.679Z,100608.13
2023-04-26T03:31:31.626Z,100604.63
2023-04-26T03:34:00.348Z,100603.81
2023-04-26T03:36:34.861Z,100607.47
2023-04-26T03:39:07.446Z,100610.22
2023-04-26T03:41:39.559Z,100615.66
2023-04-26T03:44:08.471Z,100613.03
2023-04-26T03:46:36.457Z,100608.69
2023-04-26T03:49:04.840Z,100616.63
2023-04-26T03:51:32.740Z,100613.97
2023-04-26T03:54:00.546Z,100608.78
2023-04-26T03:56:28.327Z,100611.41
2023-04-26T03:58:56.838Z,100611.44
2023-04-26T04:01:25.825Z,100597.50
2023-04-26T04:03:54.010Z,100609.94
2023-04-26T04:06:21.883Z,100608.38
2023-04-26T04:08:51.085Z,100604.13
2023-04-26T04:11:18.960Z,100593.72
2023-04-26T04:13:46.683Z,100606.97
2023-04-26T04:16:14.517Z,100610.69
2023-04-26T04:18:42.314Z,100607.25
2023-04-26T04:21:10.308Z,100603.06
2023-04-26T04:23:38.655Z,100619.88
2023-04-26T04:26:09.879Z,100616.50
2023-04-26T04:28:41.459Z,100622.69
2023-04-26T04:31:09.857Z,100605.25
2023-04-26T04:33:37.924Z,100620.97
2023-04-26T04:36:08.319Z,100611.28
2023-04-26T04:38:37.348Z,100628.94
2023-04-26T04:41:08.407Z,100618.34
2023-04-26T04:43:36.339Z,100620.84
2023-04-26T04:46:04.125Z,100626.88
2023-04-26T04:48:31.991Z,100639.13
2023-04-26T04:51:00.645Z,100625.94
2023-04-26T04:53:28.455Z,100638.09
2023-04-26T04:55:56.947Z,100639.69
2023-04-26T04:58:24.748Z,100634.34
2023-04-26T05:00:54.421Z,100645.75
2023-04-26T05:03:30.752Z,100648.41
2023-04-26T05:05:58.765Z,100644.88
2023-04-26T05:08:26.971Z,100637.94
2023-04-26T05:10:56.740Z,100650.31
2023-04-26T05:13:24.511Z,100652.13
2023-04-26T05:15:52.270Z,100638.25
2023-04-26T05:18:19.980Z,100657.66
2023-04-26T05:20:47.733Z,100666.44
2023-04-26T05:23:15.524Z,100667.28
2023-04-26T05:25:43.340Z,100660.06
2023-04-26T05:28:29.593Z,100660.91
2023-04-26T05:31:15.931Z,100664.25
2023-04-26T05:34:19.244Z,100658.09
2023-04-26T05:36:51.640Z,100666.63
2023-04-26T05:39:20.632Z,100651.66
2023-04-26T05:41:48.803Z,100664.66
2023-04-26T05:44:16.633Z,100665.34
2023-04-26T05:46:45.157Z,100664.44
2023-04-26T05:49:12.975Z,100666.19
2023-04-26T05:51:41.085Z,100663.50
2023-04-26T05:54:08.775Z,100668.66
2023-04-26T05:56:36.550Z,100679.97
2023-04-26T05:59:04.315Z,100658.00
2023-04-26T06:01:33.937Z,100678.94
2023-04-26T06:04:03.298Z,100688.53
2023-04-26T06:06:38.013Z,100682.28
2023-04-26T06:09:05.826Z,100690.91
2023-04-26T06:11:33.634Z,100689.03
2023-04-26T06:14:01.713Z,100689.63
2023-04-26T06:16:30.206Z,100699.16
2023-04-26T06:18:57.941Z,100691.06
2023-04-26T06:21:26.356Z,100698.69
2023-04-26T06:23:54.569Z,100701.03
2023-04-26T06:26:25.960Z,100705.22
2023-04-26T06:28:53.722Z,100690.91
2023-04-26T06:31:22.837Z,100689.69
2023-04-26T06:33:51.442Z,100689.44
2023-04-26T06:36:19.317Z,100687.25
2023-04-26T06:38:47.476Z,100685.22
2023-04-26T06:41:15.428Z,100694.47
2023-04-26T06:43:43.338Z,100699.41
2023-04-26T06:46:21.905Z,100691.88
2023-04-26T06:48:56.070Z,100688.72
2023-04-26T06:51:25.856Z,100680.47
2023-04-26T06:53:53.832Z,100682.66
2023-04-26T06:56:21.775Z,100691.25
2023-04-26T06:59:07.101Z,100686.41
2023-04-26T07:01:36.059Z,100682.72
2023-04-26T07:04:10.858Z,100687.69
2023-04-26T07:06:39.460Z,100681.31
2023-04-26T07:09:07.936Z,100681.06
2023-04-26T07:11:35.742Z,100686.78
2023-04-26T07:14:04.688Z,100680.16
2023-04-26T07:16:32.545Z,100669.00
2023-04-26T07:19:00.940Z,100656.28
2023-04-26T07:21:28.688Z,100671.03
2023-04-26T07:23:57.040Z,100670.03
2023-04-26T07:26:27.029Z,100664.47
2023-04-26T07:28:54.860Z,100669.50
2023-04-26T07:31:22.858Z,100665.63
2023-04-26T07:33:51.007Z,100660.94
2023-04-26T07:36:18.958Z,100660.78
2023-04-26T07:38:46.741Z,100665.78
2023-04-26T07:41:16.374Z,100667.28
2023-04-26T07:43:44.229Z,100663.50
2023-04-26T07:46:12.101Z,100667.00
2023-04-26T07:48:39.968Z,100669.44
2023-04-26T07:51:12.609Z,100667.41
2023-04-26T07:53:41.353Z,100672.63
2023-04-26T07:56:10.028Z,100675.75
2023-04-26T07:58:41.553Z,100671.03
2023-04-26T08:01:09.786Z,100663.84
2023-04-26T08:03:38.022Z,100667.63
2023-04-26T08:06:06.678Z,100674.34
2023-04-26T08:08:40.391Z,100664.41
2023-04-26T08:11:09.701Z,100662.56
2023-04-26T08:13:37.506Z,100661.56
2023-04-26T08:16:06.339Z,100668.31
2023-04-26T08:18:34.029Z,100663.81
2023-04-26T08:21:04.086Z,100668.91
2023-04-26T08:23:38.258Z,100670.34
2023-04-26T08:26:06.516Z,100656.16
2023-04-26T08:28:35.770Z,100660.38
2023-04-26T08:31:04.266Z,100667.16
2023-04-26T08:33:32.200Z,100673.06
2023-04-26T08:36:01.737Z,100659.31
2023-04-26T08:38:29.644Z,100658.34
2023-04-26T08:41:02.447Z,100662.50
2023-04-26T08:43:30.257Z,100658.63
2023-04-26T08:45:59.727Z,100667.19
2023-04-26T08:48:32.875Z,100658.91
2023-04-26T08:51:02.075Z,100655.19
2023-04-26T08:53:31.436Z,100656.72
2023-04-26T08:56:01.128Z,100652.91
2023-04-26T08:58:28.970Z,100650.88
2023-04-26T09:00:57.366Z,100636.53
2023-04-26T09:03:26.432Z,100639.78
2023-04-26T09:05:54.595Z,100635.16
2023-04-26T09:08:22.503Z,100638.50
2023-04-26T09:10:50.241Z,100641.69
2023-04-26T09:13:18.012Z,100637.94
2023-04-26T09:15:50.168Z,100635.91
2023-04-26T09:18:23.575Z,100648.31
2023-04-26T09:21:08.807Z,100636.78
2023-04-26T09:23:56.477Z,100636.56
2023-04-26T09:26:24.703Z,100628.91
2023-04-26T09:29:18.122Z,100630.28
2023-04-26T09:31:50.660Z,100622.88
2023-04-26T09:34:18.432Z,100627.09
2023-04-26T09:36:57.941Z,100623.03
2023-04-26T09:39:40.105Z,100629.66
2023-04-26T09:42:09.855Z,100623.38
2023-04-26T09:44:38.232Z,100620.59
2023-04-26T09:47:12.077Z,100626.59
2023-04-26T09:49:49.078Z,100622.28
2023-04-26T09:52:18.927Z,100632.13
2023-04-26T09:54:53.318Z,100630.00
2023-04-26T09:57:23.646Z,100625.59
2023-04-26T09:59:56.370Z,100617.34
2023-04-26T10:02:26.616Z,100621.75
2023-04-26T10:04:57.360Z,100627.59
2023-04-26T10:07:26.130Z,100625.88
2023-04-26T10:09:55.439Z,100629.44
2023-04-26T10:12:23.556Z,100622.59
2023-04-26T10:14:51.285Z,100616.69
2023-04-26T10:17:20.698Z,100618.59
2023-04-26T10:19:53.525Z,100598.50
2023-04-26T10:22:33.623Z,100602.34
2023-04-26T10:25:01.487Z,100593.09
2023-04-26T10:27:44.602Z,100597.38
2023-04-26T10:30:17.444Z,100600.53
2023-04-26T10:32:57.525Z,100599.59
2023-04-26T10:35:30.884Z,100600.03
2023-04-26T10:38:01.610Z,100593.16
2023-04-26T10:40:36.138Z,100598.09
2023-04-26T10:43:10.075Z,100597.91
2023-04-26T10:45:39.747Z,100591.66
2023-04-26T10:48:31.728Z,100587.69
2023-04-26T10:51:01.225Z,100590.13
2023-04-26T10:53:52.237Z,100579.53
2023-04-26T10:56:26.213Z,100581.63
2023-04-26T11:01:52.960Z,100563.78
2023-04-26T11:04:20.906Z,100571.72
2023-04-26T11:06:57.754Z,100569.84
2023-04-26T11:09:48.666Z,100570.88
2023-04-26T11:12:17.129Z,100556.22
2023-04-26T11:14:49.012Z,100553.97
2023-04-26T11:17:16.734Z,100541.16
2023-04-26T11:19:47.549Z,100542.88
2023-04-26T11:22:15.550Z,100543.41
2023-04-26T11:24:43.397Z,100530.25
2023-04-26T11:27:14.190Z,100532.16
2023-04-26T11:29:42.297Z,100535.22
2023-04-26T11:32:10.882Z,100530.75
2023-04-26T11:34:39.338Z,100524.53
2023-04-26T11:37:07.698Z,100526.63
2023-04-26T11:39:37.009Z,100509.75
2023-04-26T11:42:11.213Z,100504.47
2023-04-26T11:44:40.545Z,100508.63
2023-04-26T11:47:09.994Z,100500.47
2023-04-26T11:49:38.642Z,100498.81
2023-04-26T11:52:08.169Z,100511.09
2023-04-26T11:54:37.862Z,100522.78
2023-04-26T11:57:17.742Z,100514.25
2023-04-26T11:59:46.398Z,100515.97
2023-04-26T12:02:14.432Z,100508.69
2023-04-26T12:04:44.223Z,100502.09
2023-04-26T12:07:12.217Z,100502.09
2023-04-26T12:09:44.380Z,100507.09
2023-04-26T12:12:12.133Z,100512.28
2023-04-26T12:14:40.945Z,100500.09
2023-04-26T12:17:10.385Z,100508.72
2023-04-26T12:19:40.837Z,100504.88
2023-04-26T12:22:09.848Z,100499.63
2023-04-26T12:24:37.936Z,100500.66
2023-04-26T12:27:07.152Z,100502.44
2023-04-26T12:29:35.944Z,100500.50
2023-04-26T12:32:04.399Z,100499.50
2023-04-26T12:34:32.365Z,100488.88
2023-04-26T12:37:00.316Z,100498.03
2023-04-26T12:39:28.158Z,100489.97
2023-04-26T12:41:57.085Z,100492.66
2023-04-26T12:44:24.920Z,100492.88
2023-04-26T12:46:52.809Z,100494.50
2023-04-26T12:49:20.546Z,100488.06
2023-04-26T12:51:48.311Z,100493.53
2023-04-26T12:54:16.277Z,100500.38
2023-04-26T12:56:45.011Z,100508.75
2023-04-26T12:59:12.837Z,100499.88
2023-04-26T13:01:41.237Z,100494.03
2023-04-26T13:04:10.215Z,100492.00
2023-04-26T13:06:38.517Z,100492.66
2023-04-26T13:09:08.124Z,100487.97
2023-04-26T13:11:36.019Z,100485.16
2023-04-26T13:14:04.006Z,100495.47
2023-04-26T13:16:35.849Z,100484.13
2023-04-26T13:19:03.651Z,100492.28
2023-04-26T13:21:31.406Z,100489.81
2023-04-26T13:23:59.134Z,100493.75
2023-04-26T13:26:27.994Z,100492.50
2023-04-26T13:28:56.239Z,100490.00
2023-04-26T13:31:24.903Z,100486.94
2023-04-26T13:33:52.911Z,100488.09
2023-04-26T13:36:20.677Z,100493.25
2023-04-26T13:38:48.742Z,100488.13
2023-04-26T13:41:16.646Z,100479.59
2023-04-26T13:43:44.444Z,100474.75
2023-04-26T13:46:13.509Z,100478.50
2023-04-26T13:48:41.346Z,100488.19
2023-04-26T13:51:09.056Z,100468.41
2023-04-26T13:53:36.865Z,100480.75
2023-04-26T13:56:05.153Z,100477.97
2023-04-26T13:58:32.892Z,100479.31
2023-04-26T14:01:01.542Z,100464.91
2023-04-26T14:03:29.521Z,100456.84
2023-04-26T14:05:57.578Z,100468.56
2023-04-26T14:08:25.400Z,100462.31
2023-04-26T14:10:53.836Z,100465.59
2023-04-26T14:13:21.817Z,100450.22
2023-04-26T14:15:49.835Z,100465.47
2023-04-26T14:18:17.963Z,100463.03
2023-04-26T14:20:46.798Z,100467.94
2023-04-26T14:23:15.343Z,100467.53
2023-04-26T14:25:43.188Z,100462.16
2023-04-26T14:28:10.902Z,100467.25
2023-04-26T14:30:38.748Z,100466.97
2023-04-26T14:33:06.709Z,100462.44
2023-04-26T14:35:34.479Z,100456.59
2023-04-26T14:38:02.309Z,100458.31
2023-04-26T14:40:30.403Z,100452.19
2023-04-26T14:42:58.195Z,100454.78
2023-04-26T14:45:33.526Z,100461.00
2023-04-26T14:48:12.168Z,100447.94
2023-04-26T14:50:40.131Z,100450.63
2023-04-26T14:53:07.881Z,100432.78
2023-04-26T14:55:35.653Z,100445.97
2023-04-26T14:58:03.494Z,100456.72
2023-04-26T15:00:31.462Z,100451.34
2023-04-26T15:02:59.313Z,100443.97
2023-04-26T15:05:27.840Z,100434.75
2023-04-26T15:07:56.875Z,100429.38
2023-04-26T15:10:24.652Z,100430.34
2023-04-26T15:12:52.372Z,100429.38
2023-04-26T15:15:20.172Z,100428.41
2023-04-26T15:17:47.960Z,100436.19
2023-04-26T15:20:16.019Z,100432.47
2023-04-26T15:22:44.047Z,100432.56
2023-04-26T15:25:12.129Z,100425.34
2023-04-26T15:27:39.969Z,100426.22
2023-04-26T15:30:10.955Z,100409.59
2023-04-26T15:32:38.728Z,100419.84
2023-04-26T15:35:07.870Z,100428.41
2023-04-26T15:37:37.959Z,100417.47
2023-04-26T15:40:06.842Z,100411.97
2023-04-26T15:42:34.578Z,100412.09
2023-04-26T15:45:03.565Z,100416.22
2023-04-26T15:47:31.422Z,100405.75
2023-04-26T15:50:04.368Z,100410.66
2023-04-26T15:52:38.802Z,100421.31
2023-04-26T15:55:08.106Z,100420.25
2023-04-26T15:57:35.900Z,100423.03
2023-04-26T16:00:06.016Z,100410.94
2023-04-26T16:02:36.006Z,100417.06
2023-04-26T16:05:04.614Z,100414.38
2023-04-26T16:07:32.601Z,100400.66
2023-04-26T16:10:00.340Z,100409.28
2023-04-26T16:12:28.056Z,100415.63
2023-04-26T16:14:56.040Z,100406.81
2023-04-26T16:17:23.730Z,100406.13
2023-04-26T16:19:51.813Z,100406.50
2023-04-26T16:22:19.557Z,100404.09
2023-04-26T16:24:47.262Z,100405.13
2023-04-26T16:27:15.012Z,100404.38
2023-04-26T16:29:43.273Z,100403.69
2023-04-26T16:32:11.012Z,100400.94
2023-04-26T16:34:38.680Z,100398.31
2023-04-26T16:37:06.550Z,100399.19
2023-04-26T16:39:36.032Z,100396.59
2023-04-26T16:42:03.985Z,100402.16
2023-04-26T16:44:31.716Z,100397.56
2023-04-26T16:46:59.571Z,100403.91
2023-04-26T16:49:27.598Z,100407.47
2023-04-26T16:51:58.889Z,100408.38
2023-04-26T16:54:26.624Z,100414.06
2023-04-26T16:56:54.614Z,100391.50
2023-04-26T16:59:22.603Z,100403.50
2023-04-26T17:01:50.804Z,100406.38
2023-04-26T17:04:18.942Z,100415.50
2023-04-26T17:06:46.702Z,100405.13
2023-04-26T17:09:14.839Z,100406.16
2023-04-26T17:11:44.139Z,100410.69
2023-04-26T17:14:11.903Z,100408.84
2023-04-26T17:16:39.735Z,100406.06
2023-04-26T17:19:07.630Z,100414.22
2023-04-26T17:21:35.474Z,100416.06
2023-04-26T17:24:03.641Z,100416.06
2023-04-26T17:26:31.476Z,100402.13
2023-04-26T17:28:59.292Z,100410.97
2023-04-26T17:31:27.058Z,100409.41
2023-04-26T17:33:54.753Z,100404.41
2023-04-26T17:36:23.197Z,100412.56
2023-04-26T17:38:51.021Z,100422.53
2023-04-26T17:41:18.931Z,100419.06
2023-04-26T17:43:47.069Z,100415.59
2023-04-26T17:46:14.902Z,100413.88
2023-04-26T17:48:42.670Z,100405.22
2023-04-26T17:51:10.559Z,100418.38
2023-04-26T17:53:38.962Z,100426.53
2023-04-26T17:56:07.641Z,100429.13
2023-04-26T17:58:35.541Z,100423.94
2023-04-26T18:01:04.061Z,100427.69
2023-04-26T18:03:32.200Z,100425.00
2023-04-26T18:06:00.154Z,100413.75
2023-04-26T18:08:27.873Z,100428.91
2023-04-26T18:10:57.371Z,100421.13
2023-04-26T18:13:25.125Z,100436.38
2023-04-26T18:15:55.825Z,100434.06
2023-04-26T18:18:26.410Z,100440.53
2023-04-26T18:20:55.617Z,100446.06
2023-04-26T18:23:23.414Z,100442.78
2023-04-26T18:25:51.302Z,100449.38
2023-04-26T18:28:19.056Z,100443.66
2023-04-26T18:30:46.859Z,100447.31
2023-04-26T18:33:14.778Z,100445.75
2023-04-26T18:35:42.615Z,100444.34
2023-04-26T18:38:10.315Z,100448.19
2023-04-26T18:40:42.524Z,100436.75
2023-04-26T18:43:10.617Z,100447.63
2023-04-26T18:45:38.604Z,100445.13
2023-04-26T18:48:06.670Z,100457.59
2023-04-26T18:50:35.440Z,100464.09
2023-04-26T18:53:03.187Z,100464.34
2023-04-26T18:55:31.131Z,100468.94
2023-04-26T18:57:58.790Z,100463.72
2023-04-26T19:00:26.732Z,100469.25
2023-04-26T19:02:54.936Z,100467.53
2023-04-26T19:05:22.772Z,100478.34
2023-04-26T19:07:53.854Z,100472.19
2023-04-26T19:10:22.022Z,100476.78
2023-04-26T19:12:49.755Z,100481.28
2023-04-26T19:15:17.559Z,100488.47
2023-04-26T19:17:45.324Z,100488.78
2023-04-26T19:20:14.054Z,100497.69
2023-04-26T19:22:41.871Z,100498.00
2023-04-26T19:25:10.181Z,100489.44
2023-04-26T19:27:37.946Z,100509.94
2023-04-26T19:30:07.652Z,100512.47
2023-04-26T19:32:36.315Z,100514.38
2023-04-26T19:35:06.106Z,100501.97
2023-04-26T19:37:33.933Z,100513.00
2023-04-26T19:40:01.890Z,100513.34
2023-04-26T19:42:29.595Z,100524.91
2023-04-26T19:44:57.713Z,100526.13
2023-04-26T19:47:25.458Z,100514.81
2023-04-26T19:49:53.995Z,100526.59
2023-04-26T19:52:21.708Z,100519.66
2023-04-26T19:54:49.441Z,100525.16
2023-04-26T19:57:17.308Z,100532.56
2023-04-26T19:59:45.018Z,100536.34
2023-04-26T20:02:12.824Z,100525.00
2023-04-26T20:04:41.110Z,100536.88
2023-04-26T20:07:08.849Z,100534.44
2023-04-26T20:09:36.581Z,100532.06
2023-04-26T20:12:04.439Z,100519.31
2023-04-26T20:14:32.272Z,100537.97
2023-04-26T20:17:02.913Z,100545.38
2023-04-26T20:19:30.831Z,100535.97
2023-04-26T20:21:58.623Z,100533.53
2023-04-26T20:24:29.110Z,100537.22
2023-04-26T20:26:56.885Z,100536.41
2023-04-26T20:29:24.697Z,100536.50
2023-04-26T20:31:52.442Z,100529.41
2023-04-26T20:34:20.448Z,100532.00
2023-04-26T20:36:48.378Z,100537.38
2023-04-26T20:39:16.474Z,100523.22
2023-04-26T20:41:44.294Z,100519.50
2023-04-26T20:44:12.033Z,100518.72
2023-04-26T20:46:39.903Z,100521.44
2023-04-26T20:49:07.786Z,100525.16
2023-04-26T20:51:35.743Z,100520.00
2023-04-26T20:54:03.566Z,100521.00
2023-04-26T20:56:31.222Z,100528.31
2023-04-26T20:58:59.007Z,100524.91
2023-04-26T21:01:27.827Z,100529.41
2023-04-26T21:03:55.771Z,100532.16
2023-04-26T21:06:23.624Z,100530.56
2023-04-26T21:08:51.538Z,100529.75
2023-04-26T21:11:19.246Z,100533.28
2023-04-26T21:13:48.215Z,100533.38
2023-04-26T21:16:15.999Z,100529.97
2023-04-26T21:18:43.752Z,100532.81
2023-04-26T21:21:11.747Z,100532.00
2023-04-26T21:23:39.451Z,100527.81
2023-04-26T21:26:07.206Z,100532.22
2023-04-26T21:28:34.920Z,100530.47
2023-04-26T21:31:07.404Z,100529.69
2023-04-26T21:33:35.818Z,100530.88
2023-04-26T21:36:03.911Z,100540.53
2023-04-26T21:38:31.615Z,100537.94
2023-04-26T21:40:59.302Z,100536.34
2023-04-26T21:43:26.996Z,100539.97
2023-04-26T21:46:00.829Z,100539.09
2023-04-26T21:48:28.702Z,100542.94
2023-04-26T21:50:56.893Z,100542.09
2023-04-26T21:53:24.659Z,100547.63
2023-04-26T21:55:53.811Z,100544.34
2023-04-26T21:58:22.302Z,100547.09
2023-04-26T22:00:50.819Z,100551.56
2023-04-26T22:03:19.946Z,100556.09
2023-04-26T22:05:47.884Z,100550.84
2023-04-26T22:08:15.601Z,100553.44
2023-04-26T22:10:43.354Z,100559.63
2023-04-26T22:13:11.521Z,100556.97
2023-04-26T22:15:39.226Z,100552.72
2023-04-26T22:18:07.164Z,100558.06
2023-04-26T22:20:35.142Z,100558.97
2023-04-26T22:23:02.933Z,100557.53
2023-04-26T22:25:30.705Z,100563.75
2023-04-26T22:27:58.526Z,100562.13
2023-04-26T22:30:26.505Z,100556.94
2023-04-26T22:32:57.409Z,100560.59
2023-04-26T22:35:27.631Z,100558.28
2023-04-26T22:37:55.561Z,100558.53
2023-04-26T22:40:23.288Z,100558.53
2023-04-26T22:42:51.194Z,100562.06
2023-04-26T22:45:19.308Z,100567.50
2023-04-26T22:47:47.222Z,100568.47
2023-04-26T22:50:14.966Z,100571.28
2023-04-26T22:52:42.671Z,100571.28
2023-04-26T22:55:10.605Z,100570.53
2023-04-26T22:57:38.380Z,100574.34
2023-04-26T23:00:12.556Z,100572.44
2023-04-26T23:02:40.835Z,100579.69
2023-04-26T23:05:12.096Z,100571.66
2023-04-26T23:07:40.866Z,100572.59
2023-04-26T23:10:09.234Z,100576.94
2023-04-26T23:12:37.261Z,100578.72
2023-04-26T23:15:06.214Z,100576.13
2023-04-26T23:17:34.341Z,100576.94
2023-04-26T23:20:02.395Z,100578.72
2023-04-26T23:22:30.082Z,100573.59
2023-04-26T23:24:57.827Z,100573.94
2023-04-26T23:27:26.032Z,100586.41
2023-04-26T23:29:53.809Z,100583.97
2023-04-26T23:32:21.553Z,100586.06
2023-04-26T23:34:49.267Z,100589.59
2023-04-26T23:37:17.272Z,100581.03
2023-04-26T23:39:44.982Z,100587.28
2023-04-26T23:42:12.947Z,100588.31
2023-04-26T23:44:40.729Z,100585.75
2023-04-26T23:47:09.211Z,100586.69
2023-04-26T23:49:36.895Z,100585.00
2023-04-26T23:52:04.928Z,100588.69
2023-04-26T23:54:32.776Z,100573.72
2023-04-26T23:57:00.519Z,100583.59
2023-04-26T23:59:28.232Z,100580.09
